Time;durP1;ratioP1;P1;durP2;ratioP2;P2;SDS_P1;SDS_P2;PMS_P1;PMS_P2;Temp;Humidity;BMP_temperature;BMP_pressure;BME280_temperature;BME280_humidity;BME280_pressure;Samples;Min_cycle;Max_cycle;Signal;HPM_P1;HPM_P2
2023/01/05 00:02:16;;;;;;;39.92;5.85;;;10.60;99.90;;;;;;5031325;28;20083;-70
2023/01/05 00:04:41;;;;;;;35.78;6.38;;;10.60;99.90;;;;;;5032120;28;20029;-70
2023/01/05 00:07:07;;;;;;;36.70;6.15;;;10.60;99.90;;;;;;5029528;28;20029;-69
2023/01/05 00:09:32;;;;;;;31.27;5.68;;;10.60;99.90;;;;;;5028320;28;20037;-69
2023/01/05 00:23:00;;;;;;;33.35;6.45;;;10.70;99.90;;;;;;5031374;28;20079;-69
2023/01/05 00:25:29;;;;;;;36.65;5.70;;;10.70;99.90;;;;;;5029824;28;20395;-70
2023/01/05 00:27:57;;;;;;;27.63;4.85;;;10.70;99.90;;;;;;5021204;28;20101;-69
2023/01/05 00:30:26;;;;;;;28.08;4.63;;;10.70;99.90;;;;;;5032539;28;20033;-70
2023/01/05 00:32:52;;;;;;;26.45;4.90;;;10.70;99.90;;;;;;5026689;28;20068;-69
2023/01/05 00:35:18;;;;;;;27.45;5.75;;;10.70;99.90;;;;;;5031142;28;20029;-70
2023/01/05 00:37:44;;;;;;;38.72;4.93;;;10.80;99.90;;;;;;5025867;28;20037;-68
2023/01/05 00:40:12;;;;;;;30.35;5.88;;;10.70;99.90;;;;;;5030283;28;20025;-69
2023/01/05 00:42:39;;;;;;;34.80;5.22;;;10.70;99.90;;;;;;5025532;28;20555;-70
2023/01/05 00:45:07;;;;;;;35.50;6.30;;;10.70;99.90;;;;;;5029314;28;20029;-69
2023/01/05 00:47:32;;;;;;;35.53;4.70;;;10.70;99.90;;;;;;5030182;28;20030;-71
2023/01/05 00:49:58;;;;;;;34.63;6.55;;;10.70;99.90;;;;;;5022345;28;20100;-69
2023/01/05 00:52:24;;;;;;;35.83;5.50;;;10.70;99.90;;;;;;5030270;28;20030;-69
2023/01/05 00:54:50;;;;;;;27.25;4.18;;;10.70;99.90;;;;;;5027847;28;20090;-70
2023/01/05 00:57:15;;;;;;;30.95;5.38;;;10.70;99.90;;;;;;5024239;28;20079;-69
2023/01/05 00:59:41;;;;;;;30.63;4.85;;;10.60;99.90;;;;;;5034441;28;20033;-70
2023/01/05 01:02:08;;;;;;;34.53;5.03;;;10.60;99.90;;;;;;5028012;28;20022;-69
2023/01/05 01:04:35;;;;;;;36.33;6.22;;;10.60;99.90;;;;;;5034138;28;20371;-71
2023/01/05 01:07:01;;;;;;;29.38;4.40;;;10.60;99.90;;;;;;5026016;28;20037;-69
2023/01/05 01:09:27;;;;;;;32.03;5.82;;;10.60;99.90;;;;;;5031905;28;20086;-70
2023/01/05 01:11:53;;;;;;;27.83;4.25;;;10.60;99.90;;;;;;5028389;28;20029;-69
2023/01/05 01:14:19;;;;;;;31.15;5.03;;;10.60;99.90;;;;;;5033737;28;20034;-69
2023/01/05 01:16:45;;;;;;;33.22;5.38;;;10.60;99.90;;;;;;5032837;28;20029;-70
2023/01/05 01:19:16;;;;;;;35.55;6.78;;;10.60;99.90;;;;;;5032719;28;20036;-69
2023/01/05 01:21:42;;;;;;;32.60;4.87;;;10.70;99.90;;;;;;5032209;28;20056;-69
2023/01/05 01:24:07;;;;;;;37.60;4.88;;;10.70;99.90;;;;;;5032036;28;20975;-70
2023/01/05 01:26:33;;;;;;;35.92;4.93;;;10.70;99.90;;;;;;5028887;28;20041;-69
2023/01/05 01:28:59;;;;;;;34.85;5.72;;;10.80;99.90;;;;;;5031413;28;20041;-70
2023/01/05 01:31:24;;;;;;;32.65;4.65;;;10.90;99.90;;;;;;5029359;28;20037;-70
2023/01/05 01:33:50;;;;;;;31.45;5.07;;;10.90;99.90;;;;;;5033625;28;20032;-70
2023/01/05 01:36:16;;;;;;;34.85;5.78;;;10.90;99.90;;;;;;5031262;28;20421;-69
2023/01/05 01:38:41;;;;;;;33.92;5.47;;;10.90;99.90;;;;;;5034050;28;20025;-69
2023/01/05 01:41:07;;;;;;;34.08;6.05;;;10.90;99.90;;;;;;5031725;28;20052;-69
2023/01/05 01:43:48;;;;;;;43.08;6.65;;;10.90;99.90;;;;;;5034575;28;20029;-70
2023/01/05 01:46:15;;;;;;;38.20;6.22;;;10.90;99.90;;;;;;5034344;28;20490;-70
2023/01/05 01:49:03;;;;;;;36.58;7.03;;;10.90;99.90;;;;;;5033746;28;20029;-70
2023/01/05 01:51:33;;;;;;;38.42;4.90;;;10.90;99.90;;;;;;5026634;28;20079;-69
2023/01/05 01:54:02;;;;;;;48.55;6.55;;;10.90;99.90;;;;;;5034062;28;20119;-70
2023/01/05 01:56:35;;;;;;;39.60;5.60;;;11.00;99.90;;;;;;5031855;28;20017;-69
2023/01/05 01:59:01;;;;;;;32.55;5.32;;;11.00;99.90;;;;;;5034339;28;20017;-70
2023/01/05 02:01:27;;;;;;;36.08;6.28;;;11.00;99.90;;;;;;5031393;28;20442;-69
2023/01/05 02:03:54;;;;;;;41.22;6.18;;;11.00;99.90;;;;;;5033581;28;20040;-70
2023/01/05 02:06:19;;;;;;;40.03;6.00;;;11.00;99.90;;;;;;5031269;28;20395;-70
2023/01/05 02:08:46;;;;;;;35.78;5.38;;;11.00;99.90;;;;;;5024865;28;20041;-69
2023/01/05 02:11:20;;;;;;;32.97;5.43;;;11.00;99.90;;;;;;5030293;28;20037;-70
2023/01/05 02:14:16;;;;;;;34.53;5.35;;;11.10;99.90;;;;;;5029040;28;20052;-69
2023/01/05 02:17:00;;;;;;;39.33;6.22;;;11.10;99.90;;;;;;5046296;28;20122;-70
2023/01/05 02:19:50;;;;;;;40.00;5.97;;;11.10;99.90;;;;;;5033714;28;20030;-70
2023/01/05 02:22:37;;;;;;;37.85;6.55;;;11.20;99.90;;;;;;5033149;28;20033;-70
2023/01/05 02:25:23;;;;;;;38.05;5.95;;;11.20;99.90;;;;;;5034288;28;20378;-69
2023/01/05 02:27:55;;;;;;;35.50;6.63;;;11.20;99.90;;;;;;5029004;28;20116;-71
2023/01/05 02:30:42;;;;;;;;;;;11.20;99.90;;;;;;5032183;28;20026;-70
2023/01/05 02:33:43;;;;;;;34.70;5.00;;;11.20;99.90;;;;;;5033314;28;19999;-70
2023/01/05 02:36:18;;;;;;;34.05;6.28;;;11.20;99.90;;;;;;5057155;28;20033;-69
2023/01/05 02:39:01;;;;;;;36.13;6.47;;;11.20;99.90;;;;;;5028885;28;20380;-70
2023/01/05 02:41:39;;;;;;;28.05;5.90;;;11.30;99.90;;;;;;5024614;28;20382;-69
2023/01/05 02:44:07;;;;;;;33.13;6.45;;;11.20;99.90;;;;;;5033593;28;20426;-69
2023/01/05 02:46:33;;;;;;;33.75;5.78;;;11.30;99.90;;;;;;5031794;28;20021;-70
2023/01/05 02:49:01;;;;;;;37.20;5.55;;;11.30;99.90;;;;;;5027746;28;20041;-69
2023/01/05 02:51:35;;;;;;;35.55;6.10;;;11.30;99.90;;;;;;5033059;28;20045;-70
2023/01/05 02:54:17;;;;;;;31.42;5.03;;;11.30;99.90;;;;;;5028746;28;20087;-69
2023/01/05 02:56:50;;;;;;;34.72;5.35;;;11.30;99.90;;;;;;5031623;28;20415;-70
2023/01/05 02:59:38;;;;;;;34.53;4.82;;;11.20;99.90;;;;;;5022114;28;20022;-70
2023/01/05 03:02:10;;;;;;;30.20;4.78;;;11.10;99.90;;;;;;5028539;28;20025;-70
2023/01/05 03:04:56;;;;;;;34.42;5.03;;;11.10;99.90;;;;;;5027398;28;20372;-69
2023/01/05 03:07:26;;;;;;;36.63;5.10;;;11.00;99.90;;;;;;5032201;28;20125;-70
2023/01/05 03:09:52;;;;;;;35.60;5.70;;;11.10;99.90;;;;;;5031201;28;20033;-69
2023/01/05 03:15:28;;;;;;;31.65;5.32;;;11.10;99.90;;;;;;5029439;28;20040;-69
2023/01/05 03:17:57;;;;;;;31.58;5.88;;;11.10;99.90;;;;;;5032122;28;20120;-69
2023/01/05 03:20:26;;;;;;;38.22;5.47;;;11.10;99.90;;;;;;5031146;28;20104;-69
2023/01/05 03:37:11;;;;;;;26.55;4.70;;;11.20;99.90;;;;;;5028857;28;20052;-70
2023/01/05 03:39:40;;;;;;;31.48;5.35;;;11.20;99.90;;;;;;5031959;28;20040;-69
2023/01/05 03:42:07;;;;;;;34.20;4.88;;;11.30;99.90;;;;;;5032438;28;20045;-70
2023/01/05 03:44:53;;;;;;;34.58;4.97;;;11.30;99.90;;;;;;5032766;28;20022;-69
2023/01/05 03:47:19;;;;;;;34.13;4.60;;;11.30;99.90;;;;;;5032421;28;20041;-70
2023/01/05 03:49:44;;;;;;;33.15;4.97;;;11.40;99.90;;;;;;5031207;28;20455;-70
2023/01/05 03:52:10;;;;;;;33.97;5.53;;;11.30;99.90;;;;;;5032194;28;20442;-69
2023/01/05 03:54:35;;;;;;;37.22;4.97;;;11.40;99.90;;;;;;5032371;28;20021;-71
2023/01/05 03:57:01;;;;;;;31.42;5.55;;;11.40;99.90;;;;;;5032590;28;20025;-69
2023/01/05 03:59:26;;;;;;;40.28;4.97;;;11.30;99.90;;;;;;5031836;28;20072;-69
2023/01/05 04:01:52;;;;;;;38.67;6.30;;;11.40;99.90;;;;;;5031820;28;20104;-70
2023/01/05 04:04:19;;;;;;;31.30;5.15;;;11.40;99.90;;;;;;5032854;28;20065;-71
2023/01/05 04:06:44;;;;;;;30.75;4.75;;;11.40;99.90;;;;;;5032012;28;20108;-71
2023/01/05 04:09:11;;;;;;;30.48;5.43;;;11.40;99.90;;;;;;5031354;28;20048;-71
2023/01/05 04:11:38;;;;;;;30.33;5.28;;;11.40;99.90;;;;;;5022057;28;20038;-71
2023/01/05 04:14:03;;;;;;;38.65;5.88;;;11.40;99.90;;;;;;5013538;28;21533;-70
2023/01/05 04:16:29;;;;;;;34.00;5.57;;;11.30;99.90;;;;;;5021482;28;20108;-69
2023/01/05 04:18:55;;;;;;;33.03;4.88;;;11.30;99.90;;;;;;5030898;28;20109;-69
2023/01/05 04:21:20;;;;;;;40.78;6.20;;;11.30;99.90;;;;;;5030708;28;20044;-69
2023/01/05 04:23:46;;;;;;;31.48;4.60;;;11.30;99.90;;;;;;5031953;28;20066;-69
2023/01/05 04:26:11;;;;;;;33.90;4.63;;;11.30;99.90;;;;;;5031586;28;20096;-70
2023/01/05 04:28:37;;;;;;;41.35;5.72;;;11.30;99.90;;;;;;5031854;28;20466;-69
2023/01/05 04:31:02;;;;;;;33.65;5.93;;;11.30;99.90;;;;;;5026505;28;20033;-70
2023/01/05 04:33:28;;;;;;;39.88;6.72;;;11.30;99.90;;;;;;5024142;28;20493;-70
2023/01/05 04:35:54;;;;;;;31.50;5.35;;;11.30;99.90;;;;;;5028557;28;20040;-69
2023/01/05 04:38:19;;;;;;;30.55;4.82;;;11.30;99.90;;;;;;5031969;28;20022;-70
2023/01/05 04:40:49;;;;;;;37.40;5.45;;;11.30;99.90;;;;;;5030172;28;20475;-70
2023/01/05 04:43:15;;;;;;;27.48;5.00;;;11.30;99.90;;;;;;5031264;28;20038;-70
2023/01/05 04:45:40;;;;;;;35.83;5.57;;;11.30;99.90;;;;;;5031165;28;20029;-70
2023/01/05 04:48:06;;;;;;;37.75;5.78;;;11.30;99.90;;;;;;5031621;28;20034;-69
2023/01/05 04:50:32;;;;;;;33.28;6.20;;;11.20;99.90;;;;;;5025885;28;20045;-69
2023/01/05 04:52:57;;;;;;;34.75;5.72;;;11.20;99.90;;;;;;5030683;28;20041;-70
2023/01/05 04:55:23;;;;;;;38.47;5.75;;;11.20;99.90;;;;;;5031845;28;20083;-70
2023/01/05 04:57:49;;;;;;;36.80;4.80;;;11.20;99.90;;;;;;5030173;28;20029;-70
2023/01/05 05:00:14;;;;;;;32.22;4.93;;;11.10;99.90;;;;;;5031492;28;20109;-69
2023/01/05 05:02:40;;;;;;;42.75;6.20;;;11.10;99.90;;;;;;5030175;28;20368;-70
2023/01/05 05:05:06;;;;;;;34.55;7.10;;;11.10;99.90;;;;;;5030536;28;20038;-69
2023/01/05 05:07:31;;;;;;;33.67;5.43;;;11.10;99.90;;;;;;5031417;28;20048;-68
2023/01/05 05:09:57;;;;;;;33.88;5.57;;;11.10;99.90;;;;;;5030902;28;20040;-70
2023/01/05 05:12:22;;;;;;;32.58;5.80;;;11.10;99.90;;;;;;5030086;28;20475;-69
2023/01/05 05:14:48;;;;;;;30.48;4.65;;;11.10;99.90;;;;;;5031805;28;20021;-70
2023/01/05 05:17:15;;;;;;;36.92;6.38;;;11.10;99.90;;;;;;5031464;28;20418;-70
2023/01/05 05:19:41;;;;;;;31.20;4.88;;;11.10;99.90;;;;;;5031579;28;20124;-70
2023/01/05 05:22:07;;;;;;;27.40;5.22;;;11.20;99.90;;;;;;5030378;28;20510;-70
2023/01/05 05:24:32;;;;;;;37.42;4.65;;;11.20;99.90;;;;;;5030701;28;20025;-70
2023/01/05 05:26:58;;;;;;;32.78;6.45;;;11.20;99.90;;;;;;5031298;28;20022;-69
2023/01/05 05:29:24;;;;;;;34.47;5.18;;;11.20;99.90;;;;;;5023919;28;20434;-70
2023/01/05 05:31:50;;;;;;;36.47;6.00;;;11.20;99.90;;;;;;5028468;28;20025;-70
2023/01/05 05:34:16;;;;;;;34.72;6.63;;;11.20;99.90;;;;;;5031277;28;20038;-70
2023/01/05 05:36:42;;;;;;;34.08;5.60;;;11.20;99.90;;;;;;5030990;28;20078;-69
2023/01/05 05:39:10;;;;;;;39.83;5.25;;;11.20;99.90;;;;;;5031717;28;20030;-70
2023/01/05 05:41:35;;;;;;;36.60;5.72;;;11.10;99.90;;;;;;5031586;28;20103;-69
2023/01/05 05:44:01;;;;;;;38.17;5.70;;;11.20;99.90;;;;;;5030554;28;20459;-69
2023/01/05 05:46:27;;;;;;;33.63;5.65;;;11.20;99.90;;;;;;5034631;28;20387;-70
2023/01/05 05:48:54;;;;;;;29.23;5.38;;;11.20;99.90;;;;;;5033582;28;20116;-69
2023/01/05 05:51:19;;;;;;;40.38;5.53;;;11.20;99.90;;;;;;5030899;28;20140;-70
2023/01/05 05:53:45;;;;;;;33.22;5.05;;;11.20;99.90;;;;;;5030113;28;20112;-70
2023/01/05 05:56:10;;;;;;;32.40;5.53;;;11.10;99.90;;;;;;5034518;28;20164;-69
2023/01/05 05:58:36;;;;;;;25.98;5.05;;;11.20;99.90;;;;;;5034444;28;20030;-71
2023/01/05 06:01:01;;;;;;;39.17;6.15;;;11.10;99.90;;;;;;5034581;28;20036;-69
2023/01/05 06:03:27;;;;;;;31.30;5.25;;;11.10;99.90;;;;;;5033005;28;20038;-70
2023/01/05 06:05:53;;;;;;;37.10;5.93;;;11.20;99.90;;;;;;5033417;28;20022;-70
2023/01/05 06:08:18;;;;;;;32.05;4.93;;;11.10;99.90;;;;;;5033924;28;20467;-70
2023/01/05 06:10:44;;;;;;;35.65;4.90;;;11.20;99.90;;;;;;5034549;28;20086;-69
2023/01/05 06:13:10;;;;;;;30.13;4.82;;;11.20;99.90;;;;;;5033775;28;20068;-69
2023/01/05 06:15:35;;;;;;;25.52;4.03;;;11.20;99.90;;;;;;5034150;28;20040;-70
2023/01/05 06:18:01;;;;;;;33.42;5.30;;;11.20;99.90;;;;;;5033507;28;20029;-70
2023/01/05 06:20:26;;;;;;;34.10;4.75;;;11.20;99.90;;;;;;5034089;28;20550;-69
2023/01/05 06:22:52;;;;;;;36.50;6.57;;;11.20;99.90;;;;;;5033343;28;20040;-70
2023/01/05 06:25:18;;;;;;;30.13;4.30;;;11.20;99.90;;;;;;5033841;28;20029;-70
2023/01/05 06:27:43;;;;;;;34.35;5.10;;;11.20;99.90;;;;;;5034117;28;20041;-71
2023/01/05 06:30:09;;;;;;;35.97;5.35;;;11.20;99.90;;;;;;5034182;28;20037;-70
2023/01/05 06:32:35;;;;;;;23.63;4.18;;;11.20;99.90;;;;;;5032157;28;20033;-70
2023/01/05 06:35:00;;;;;;;32.85;4.75;;;11.20;99.90;;;;;;5034052;28;20079;-70
2023/01/05 06:37:26;;;;;;;32.95;5.10;;;11.20;99.90;;;;;;5033094;28;20045;-70
2023/01/05 06:39:53;;;;;;;33.13;5.40;;;11.20;99.90;;;;;;5034346;28;20136;-70
2023/01/05 06:42:19;;;;;;;34.08;4.97;;;11.20;99.90;;;;;;5030925;28;20040;-70
2023/01/05 06:44:44;;;;;;;28.10;5.55;;;11.20;99.90;;;;;;5031271;28;20045;-70
2023/01/05 06:47:10;;;;;;;34.08;4.63;;;11.20;99.90;;;;;;5030734;28;20072;-70
2023/01/05 06:49:35;;;;;;;33.47;5.35;;;11.10;99.90;;;;;;5022473;28;20041;-70
2023/01/05 06:52:01;;;;;;;25.48;4.82;;;11.10;99.90;;;;;;5033604;28;20033;-69
2023/01/05 06:54:26;;;;;;;26.65;4.32;;;11.10;99.90;;;;;;5032083;28;20026;-70
2023/01/05 06:56:52;;;;;;;26.60;4.78;;;11.00;99.90;;;;;;5029775;28;20100;-70
2023/01/05 06:59:17;;;;;;;22.30;5.20;;;11.00;99.90;;;;;;5033106;28;20048;-70
2023/01/05 07:01:43;;;;;;;36.00;5.63;;;11.00;99.90;;;;;;5033823;28;20064;-70
2023/01/05 07:04:09;;;;;;;27.92;5.35;;;11.00;99.90;;;;;;5027948;28;20022;-69
2023/01/05 07:06:35;;;;;;;34.88;4.85;;;11.00;99.90;;;;;;5027577;28;20025;-69
2023/01/05 07:09:00;;;;;;;36.33;5.68;;;11.00;99.90;;;;;;5033179;28;20044;-70
2023/01/05 07:11:26;;;;;;;25.92;4.55;;;11.10;99.90;;;;;;5033573;28;20034;-71
2023/01/05 07:13:52;;;;;;;26.80;4.50;;;11.10;99.90;;;;;;5033337;28;20082;-70
2023/01/05 07:16:18;;;;;;;24.15;4.45;;;11.00;99.90;;;;;;5033661;28;20029;-69
2023/01/05 07:18:44;;;;;;;27.48;5.05;;;11.10;99.90;;;;;;5033042;28;20038;-69
2023/01/05 07:21:09;;;;;;;34.38;5.50;;;11.00;99.90;;;;;;5033247;28;20029;-68
2023/01/05 07:23:38;;;;;;;32.22;4.75;;;11.10;99.90;;;;;;5032533;28;20053;-70
2023/01/05 07:26:05;;;;;;;29.20;5.35;;;11.00;99.90;;;;;;5033755;28;20041;-71
2023/01/05 07:28:30;;;;;;;35.45;5.03;;;11.10;99.90;;;;;;5030519;28;20125;-69
2023/01/05 07:30:56;;;;;;;35.53;5.22;;;11.10;99.90;;;;;;5032810;28;20120;-69
2023/01/05 07:33:21;;;;;;;28.23;4.88;;;11.10;99.90;;;;;;5032487;28;20108;-70
2023/01/05 07:35:47;;;;;;;30.73;5.22;;;11.10;99.90;;;;;;5033089;28;20038;-69
2023/01/05 07:38:12;;;;;;;29.58;4.05;;;11.10;99.90;;;;;;5031528;28;20040;-70
2023/01/05 07:40:38;;;;;;;26.25;4.55;;;11.10;99.90;;;;;;5033227;28;20029;-70
2023/01/05 07:43:04;;;;;;;30.80;5.05;;;11.10;99.90;;;;;;5032608;28;20152;-70
2023/01/05 07:45:29;;;;;;;29.30;4.07;;;11.10;99.90;;;;;;5032620;28;20096;-70
2023/01/05 07:47:55;;;;;;;36.10;5.00;;;11.10;99.90;;;;;;5025762;28;20101;-70
2023/01/05 07:50:21;;;;;;;27.90;4.93;;;11.10;99.90;;;;;;5020071;28;20324;-70
2023/01/05 07:52:47;;;;;;;34.90;4.65;;;11.20;99.90;;;;;;5013228;28;20034;-70
2023/01/05 07:55:12;;;;;;;35.28;4.78;;;11.20;99.90;;;;;;5032038;28;20025;-70
2023/01/05 07:57:38;;;;;;;31.75;4.00;;;11.20;99.90;;;;;;5027487;28;20459;-69
2023/01/05 08:00:04;;;;;;;31.20;4.72;;;11.10;99.90;;;;;;5030219;28;20029;-69
2023/01/05 08:02:30;;;;;;;32.17;4.78;;;11.20;99.90;;;;;;5032480;28;20033;-70
2023/01/05 08:04:55;;;;;;;34.22;5.55;;;11.20;99.90;;;;;;5032467;28;20025;-70
2023/01/05 08:07:21;;;;;;;27.35;5.18;;;11.20;99.90;;;;;;5031683;28;20463;-70
2023/01/05 08:12:31;;;;;;;34.20;4.43;;;11.20;99.90;;;;;;5031823;28;20083;-70
2023/01/05 08:14:56;;;;;;;30.65;4.68;;;11.20;99.90;;;;;;5032132;28;20034;-68
2023/01/05 08:17:22;;;;;;;35.70;5.20;;;11.20;99.90;;;;;;5031378;28;20030;-69
2023/01/05 08:19:47;;;;;;;39.33;5.60;;;11.30;99.90;;;;;;5031840;28;20033;-70
2023/01/05 08:22:13;;;;;;;37.67;4.93;;;11.30;99.90;;;;;;5031203;28;20026;-70
2023/01/05 08:24:38;;;;;;;39.67;5.30;;;11.30;99.90;;;;;;5027455;28;20091;-70
2023/01/05 08:27:04;;;;;;;31.35;4.85;;;11.30;99.90;;;;;;5031252;28;20521;-70
2023/01/05 08:29:30;;;;;;;35.05;4.43;;;11.20;99.90;;;;;;5031899;28;20064;-69
2023/01/05 08:31:56;;;;;;;34.00;4.60;;;11.30;99.90;;;;;;5029770;28;20033;-70
2023/01/05 08:34:21;;;;;;;33.85;6.68;;;11.20;99.90;;;;;;5022277;28;20422;-70
2023/01/05 08:36:47;;;;;;;34.17;5.20;;;11.30;99.90;;;;;;5022209;28;20026;-70
2023/01/05 08:39:12;;;;;;;35.03;5.40;;;11.30;99.90;;;;;;5031547;28;20048;-70
2023/01/05 08:41:39;;;;;;;23.33;4.68;;;11.30;99.90;;;;;;5030323;28;20048;-71
2023/01/05 08:44:09;;;;;;;31.98;5.10;;;11.40;99.90;;;;;;5031387;28;20129;-69
2023/01/05 08:46:35;;;;;;;30.80;5.45;;;11.40;99.90;;;;;;5019612;28;20037;-70
2023/01/05 08:49:04;;;;;;;38.17;5.65;;;11.40;99.90;;;;;;5029966;28;20041;-70
2023/01/05 08:51:31;;;;;;;35.35;6.22;;;11.50;99.90;;;;;;5031940;28;20133;-68
2023/01/05 08:54:11;;;;;;;33.70;4.57;;;11.50;99.90;;;;;;5031444;28;20034;-71
2023/01/05 08:56:36;;;;;;;33.92;6.00;;;11.50;99.90;;;;;;5020009;28;20108;-68
2023/01/05 08:59:02;;;;;;;27.15;4.28;;;11.50;99.90;;;;;;5029825;28;20419;-69
2023/01/05 09:01:29;;;;;;;35.97;4.38;;;11.50;99.90;;;;;;5032284;28;20033;-70
2023/01/05 09:03:55;;;;;;;36.28;7.90;;;11.50;99.90;;;;;;5032314;28;20021;-70
2023/01/05 09:06:20;;;;;;;34.97;4.53;;;11.60;99.90;;;;;;5028575;28;20032;-69
2023/01/05 09:08:47;;;;;;;31.20;4.93;;;11.60;99.90;;;;;;5031170;28;20395;-70
2023/01/05 09:11:21;;;;;;;28.35;4.25;;;11.60;99.90;;;;;;5031040;28;20494;-70
2023/01/05 09:13:49;;;;;;;32.08;4.97;;;11.60;99.90;;;;;;5017394;28;20042;-70
2023/01/05 09:16:17;;;;;;;30.15;5.30;;;11.60;99.90;;;;;;5027890;28;20029;-70
2023/01/05 09:18:44;;;;;;;24.80;3.65;;;11.70;99.90;;;;;;5033758;28;20033;-70
2023/01/05 09:21:11;;;;;;;31.15;5.20;;;11.70;99.90;;;;;;5035253;28;20402;-70
2023/01/05 09:23:37;;;;;;;28.30;5.53;;;11.70;99.90;;;;;;5034924;28;20491;-71
2023/01/05 09:26:05;;;;;;;28.30;4.85;;;11.70;99.90;;;;;;5030009;28;20387;-69
2023/01/05 09:28:30;;;;;;;32.35;4.75;;;11.80;99.90;;;;;;5030449;28;20049;-70
2023/01/05 09:30:56;;;;;;;30.02;4.55;;;11.80;99.90;;;;;;5026085;28;20053;-70
2023/01/05 09:33:21;;;;;;;28.52;4.70;;;11.80;99.90;;;;;;5034850;28;20056;-70
2023/01/05 09:35:55;;;;;;;29.35;4.35;;;11.80;99.90;;;;;;5035025;28;20030;-71
2023/01/05 09:38:22;;;;;;;28.63;4.45;;;11.90;99.90;;;;;;5034666;28;20029;-69
2023/01/05 09:40:50;;;;;;;25.92;3.85;;;11.90;99.90;;;;;;5034754;28;20406;-70
2023/01/05 09:43:35;;;;;;;25.77;4.25;;;12.00;99.90;;;;;;5034778;28;20045;-70
2023/01/05 09:46:09;;;;;;;22.38;3.72;;;11.90;99.90;;;;;;5033299;28;20044;-70
2023/01/05 09:48:40;;;;;;;29.00;4.18;;;12.00;99.90;;;;;;5034089;28;20045;-70
2023/01/05 09:51:09;;;;;;;27.90;3.72;;;12.00;99.90;;;;;;5034836;28;20053;-71
2023/01/05 09:53:35;;;;;;;24.42;4.38;;;12.00;99.90;;;;;;5033899;28;20029;-69
2023/01/05 09:56:01;;;;;;;26.23;4.97;;;12.10;99.90;;;;;;5033743;28;20034;-70
2023/01/05 09:58:33;;;;;;;28.73;4.18;;;12.10;99.90;;;;;;5034280;28;20025;-71
2023/01/05 10:01:08;;;;;;;29.92;5.00;;;12.10;99.90;;;;;;5034142;28;20107;-70
2023/01/05 10:03:59;;;;;;;33.63;4.90;;;12.10;99.90;;;;;;5033026;28;20479;-70
2023/01/05 10:06:31;;;;;;;30.77;4.20;;;12.10;99.90;;;;;;5033002;28;20060;-69
2023/01/05 10:08:57;;;;;;;29.75;5.97;;;12.10;99.90;;;;;;5027254;28;20083;-71
2023/01/05 10:14:37;;;;;;;37.08;5.55;;;12.20;99.90;;;;;;5034474;28;20121;-70
2023/01/05 10:17:10;;;;;;;23.30;4.00;;;12.30;99.90;;;;;;5025083;28;20017;-70
2023/01/05 10:19:35;;;;;;;28.52;4.30;;;12.30;99.90;;;;;;5033322;28;20057;-69
2023/01/05 10:22:21;;;;;;;29.83;4.78;;;12.30;99.90;;;;;;5033511;28;20075;-72
2023/01/05 10:25:12;;;;;;;26.30;5.03;;;12.30;99.90;;;;;;5033665;28;20116;-69
2023/01/05 10:28:06;;;;;;;33.38;4.97;;;12.30;99.90;;;;;;5033447;28;20124;-70
2023/01/05 10:30:41;;;;;;;;;;;12.40;99.90;;;;;;5016674;28;20037;-70
2023/01/05 10:33:38;;;;;;;25.08;3.78;;;12.40;99.90;;;;;;5033849;28;19952;-71
2023/01/05 10:36:25;;;;;;;32.28;5.68;;;12.50;99.90;;;;;;5032484;28;20531;-69
2023/01/05 10:39:19;;;;;;;30.63;4.25;;;12.60;99.90;;;;;;5033534;28;20042;-69
2023/01/05 10:42:04;;;;;;;33.15;5.32;;;12.70;99.90;;;;;;5022068;28;20053;-70
2023/01/05 10:44:36;;;;;;;29.00;4.70;;;12.70;99.90;;;;;;5021286;28;20052;-71
2023/01/05 10:47:02;;;;;;;30.42;4.70;;;12.70;99.90;;;;;;5027195;28;20041;-69
2023/01/05 10:49:31;;;;;;;29.20;5.10;;;12.80;99.90;;;;;;5021746;28;20534;-69
2023/01/05 10:51:59;;;;;;;23.75;3.95;;;12.80;99.90;;;;;;5033735;28;20040;-70
2023/01/05 10:55:22;;;;;;;33.60;5.45;;;12.90;99.90;;;;;;5029810;28;20037;-70
2023/01/05 10:57:47;;;;;;;;;;;12.90;99.90;;;;;;5062196;28;20025;-71
2023/01/05 11:00:21;;;;;;;31.98;4.85;;;12.90;99.90;;;;;;5027601;28;19909;-71
2023/01/05 11:02:49;;;;;;;31.02;5.07;;;12.90;99.90;;;;;;5029022;28;20033;-70
2023/01/05 11:05:35;;;;;;;30.80;5.30;;;12.90;99.90;;;;;;5030849;28;20466;-70
2023/01/05 11:08:04;;;;;;;26.40;4.20;;;13.00;99.90;;;;;;5030810;28;20471;-71
2023/01/05 11:10:31;;;;;;;26.92;5.03;;;13.00;99.90;;;;;;5025161;28;20033;-71
2023/01/05 11:13:03;;;;;;;39.58;7.68;;;13.00;99.90;;;;;;5027289;28;20086;-70
2023/01/05 11:15:32;;;;;;;32.22;4.63;;;13.00;99.90;;;;;;5022692;28;20041;-69
2023/01/05 11:18:30;;;;;;;29.38;4.57;;;13.00;99.90;;;;;;5027594;28;20030;-71
2023/01/05 11:21:18;;;;;;;35.38;5.25;;;13.10;99.90;;;;;;5028003;28;20041;-71
2023/01/05 11:23:49;;;;;;;28.85;5.18;;;13.10;99.90;;;;;;5023487;28;20032;-70
2023/01/05 11:26:20;;;;;;;31.40;4.97;;;13.20;99.90;;;;;;5019778;28;20026;-71
2023/01/05 11:29:00;;;;;;;29.25;6.00;;;13.20;99.90;;;;;;5039317;28;20487;-70
2023/01/05 11:31:41;;;;;;;36.45;5.70;;;13.30;99.90;;;;;;5030266;28;20458;-71
2023/01/05 11:34:33;;;;;;;31.33;5.47;;;13.40;99.90;;;;;;5032875;28;20662;-70
2023/01/05 11:37:03;;;;;;;29.75;5.07;;;13.40;99.90;;;;;;5028923;28;20033;-70
2023/01/05 11:39:45;;;;;;;31.58;5.03;;;13.50;99.90;;;;;;5028097;28;20029;-70
2023/01/05 11:42:12;;;;;;;29.23;5.50;;;13.80;99.90;;;;;;5022992;28;20394;-70
2023/01/05 11:44:42;;;;;;;33.42;4.30;;;14.70;99.90;;;;;;5031072;28;20056;-70
2023/01/05 11:47:08;;;;;;;30.50;5.50;;;15.50;99.90;;;;;;5032199;28;20417;-71
2023/01/05 11:49:35;;;;;;;31.38;5.28;;;16.00;99.90;;;;;;5029460;28;20073;-70
2023/01/05 11:52:01;;;;;;;34.90;5.90;;;16.50;99.90;;;;;;5026603;28;20450;-69
2023/01/05 11:54:38;;;;;;;41.63;6.57;;;16.90;99.90;;;;;;5017119;28;20171;-70
2023/01/05 11:57:13;;;;;;;31.23;5.53;;;17.30;99.90;;;;;;5027909;28;20037;-69
2023/01/05 11:59:38;;;;;;;26.38;5.15;;;17.40;99.90;;;;;;5022410;28;20037;-69
2023/01/05 12:02:34;;;;;;;34.28;5.15;;;17.30;99.90;;;;;;5031446;28;20040;-70
2023/01/05 12:05:08;;;;;;;26.23;4.95;;;17.20;99.90;;;;;;5018960;28;20053;-69
2023/01/05 12:07:36;;;;;;;30.52;5.40;;;17.40;99.90;;;;;;5028107;28;20029;-70
2023/01/05 12:10:10;;;;;;;33.08;5.03;;;17.30;99.90;;;;;;5021725;28;20033;-70
2023/01/05 12:12:59;;;;;;;32.83;5.60;;;17.30;99.90;;;;;;5032183;28;20483;-71
2023/01/05 12:15:41;;;;;;;31.05;5.80;;;17.30;99.90;;;;;;5025819;28;20472;-70
2023/01/05 12:18:56;;;;;;;30.75;6.43;;;17.40;99.90;;;;;;5032301;28;20091;-70
2023/01/05 12:21:23;;;;;;;32.42;5.53;;;17.40;99.90;;;;;;5011779;28;20043;-70
2023/01/05 12:24:27;;;;;;;28.10;5.60;;;16.80;99.90;;;;;;5031767;28;20026;-69
2023/01/05 12:27:25;;;;;;;29.38;5.65;;;16.70;99.90;;;;;;5027868;28;20030;-71
2023/01/05 12:30:02;;;;;;;28.30;4.55;;;16.50;99.90;;;;;;5021317;28;20049;-69
2023/01/05 12:32:55;;;;;;;22.27;4.90;;;16.50;99.90;;;;;;5031776;28;20067;-70
2023/01/05 12:35:54;;;;;;;37.10;5.47;;;16.40;99.90;;;;;;5031381;28;20030;-69
2023/01/05 12:38:41;;;;;;;34.03;5.45;;;16.30;99.90;;;;;;5026110;28;20026;-70
2023/01/05 12:41:28;;;;;;;37.08;6.40;;;16.00;99.90;;;;;;5026225;28;20379;-71
2023/01/05 12:44:00;;;;;;;33.42;5.93;;;15.50;99.90;;;;;;5025905;28;20037;-70
2023/01/05 12:46:44;;;;;;;32.78;5.93;;;15.00;99.90;;;;;;5030143;28;20025;-69
2023/01/05 12:49:17;;;;;;;37.08;6.32;;;14.60;99.90;;;;;;5028638;28;20044;-70
2023/01/05 12:51:52;;;;;;;36.63;7.00;;;14.40;99.90;;;;;;5032354;28;20087;-70
2023/01/05 12:54:29;;;;;;;36.67;5.93;;;14.10;99.90;;;;;;5036535;28;20049;-71
2023/01/05 12:57:03;;;;;;;32.60;5.20;;;14.00;99.90;;;;;;5038506;28;20041;-71
2023/01/05 12:59:39;;;;;;;41.60;7.57;;;13.80;99.90;;;;;;5035160;28;20121;-71
2023/01/05 13:02:21;;;;;;;38.20;5.82;;;13.60;99.90;;;;;;5023489;28;20079;-71
2023/01/05 13:04:58;;;;;;;31.20;5.22;;;13.40;99.90;;;;;;5035142;28;20048;-71
2023/01/05 13:07:41;;;;;;;39.28;7.22;;;13.20;99.90;;;;;;5026512;28;20535;-69
2023/01/05 13:10:40;;;;;;;37.97;5.85;;;13.00;99.90;;;;;;5024271;28;20505;-71
2023/01/05 13:13:13;;;;;;;37.78;5.72;;;12.90;99.90;;;;;;5030736;28;20037;-69
2023/01/05 13:15:45;;;;;;;34.53;6.13;;;12.90;99.90;;;;;;5033642;28;20083;-71
2023/01/05 13:18:17;;;;;;;35.35;5.53;;;12.90;99.90;;;;;;5026538;28;20809;-69
2023/01/05 13:20:52;;;;;;;38.28;5.60;;;12.90;99.90;;;;;;5030294;28;20048;-70
2023/01/05 13:23:29;;;;;;;39.05;5.85;;;12.80;99.90;;;;;;5028081;28;20022;-70
2023/01/05 13:26:03;;;;;;;29.42;7.38;;;12.70;99.90;;;;;;5034315;28;20033;-69
2023/01/05 13:28:29;;;;;;;27.80;5.15;;;12.70;99.90;;;;;;5021944;28;20105;-69
2023/01/05 13:31:45;;;;;;;35.90;5.40;;;12.60;99.90;;;;;;5028483;28;20125;-70